Station info - map view · info · telemetry · weather · raw · status · beacons · messages · bulletins · browse · moving · my account
Callsign, ship name or locator: Clear       
It is possible to search using wildcards (*?) after a prefix. Example: OH*
APRS station N4PYI-14 - show graphs
Map loading...
Mic-E message: In service
Location: 36°15.33' N 86°29.38' W - locator EM66SG11FH - show map - static map
4.0 miles Northeast bearing 56° from Green Hill, Wilson County, Tennessee, United States [?]
4.2 miles Northeast bearing 23° from Mount Juliet, Wilson County, Tennessee, United States
17.5 miles East bearing 69° from Nashville, Davidson County, Tennessee, United States
51.9 miles East bearing 111° from Clarksville, Montgomery County, Tennessee, United States
Last position: 2018-11-16 18:45:25 EST (4h50m ago)
2018-11-16 17:45:25 CST local time at Green Hill, United States [?]
Altitude: 571 ft
Course: 14°
Device: Kenwood: TM-D700 (rig)
Last path: N4PYI-14>S6QU3S via WIDE2-2,qAR,W1ARN-1 (good)
Positions stored: 140187
Packet rate: 140 seconds between packets on average during 6319 seconds.
Other SSIDs: N4PYI-4
Stations near current position of N4PYI-14 - show more
callsign distance last heard - EST      callsign distance last heard - EST
KQ4TV-21.9 miles 145°2018-11-16 23:33:39 KQ4TV-71.9 miles 145°2018-11-16 23:32:25
AA4DE-91.9 miles 143°2018-11-16 07:11:43 K4OHX4.1 miles 262°2018-11-16 23:30:02
W1ARN-74.1 miles 262°2018-11-14 07:38:20 DAVID K WILSON4.3 miles 320°2018-11-16 23:29:00
W1ARN-24.7 miles 50°2018-11-16 23:35:05 KN4IOB4.8 miles 320°2018-11-16 23:07:49
DW47624.9 miles 44°2018-11-16 23:32:52 KC8NNO5.2 miles 249°2018-11-16 23:35:00
AD4CJ-96.0 miles 189°2018-11-16 08:53:35 K6QS-96.1 miles 291°2018-11-16 19:30:34
LIQUID ASSETS6.4 miles 274°2018-10-21 16:58:50 FW26646.8 miles 305°2018-11-16 23:35:02
FW09306.9 miles 259°2018-11-16 23:32:36 KE4CE7.6 miles 8°2018-11-16 23:25:23
kN4PYX-i8.2 miles 20°2018-11-06 17:33:01 KB4PYP-19.0 miles 227°2018-11-15 19:55:10
KJ4HFG9.3 miles 228°2018-11-02 09:07:27 KJ4HFG-59.3 miles 228°2018-11-02 09:07:27
Stations which heard N4PYI-14 directly on radio –
callsign pkts first heard - EST last heard longest (tx => rx) longest at - EST
NT4UX-3 40 2018-11-01 06:46:27 2018-11-16 06:47:05 EM66SG > EM66NG 23.0 miles 270° 2018-11-08 17:58:29
W1ARN-1 522 2018-11-01 06:30:09 2018-11-16 18:45:25 EM65TT > EM66SL 44.2 miles 356° 2018-11-03 18:24:32
W4GGM-1 1 2018-11-13 06:59:37 2018-11-13 06:59:37 EM66OA > EM65LN 35.8 miles 203° 2018-11-13 06:59:37
N5AAA-1 1 2018-11-13 10:37:08 2018-11-13 10:37:08 EM66OA > EM65NQ 24.7 miles 195° 2018-11-13 10:37:08
KA4EMA-3 3 2018-11-02 10:32:43 2018-11-03 16:04:40 EM74JX > EM75IE 17.7 miles 343° 2018-11-03 15:56:34
K4UAN-3 2 2018-11-07 06:46:13 2018-11-16 18:19:04 EM66QE > EM76HB 71.1 miles 95° 2018-11-07 06:46:13
K5OLV-2 6 2018-11-02 09:13:26 2018-11-03 17:11:38 EM75DC > EM74GU 23.1 miles 136° 2018-11-02 09:13:26
N4YH-10 2 2018-11-02 10:30:42 2018-11-03 16:02:37 EM75JA > EM75JH 23.0 miles 6° 2018-11-02 10:30:42
KD4YDD-1 11 2018-11-02 17:28:39 2018-11-02 19:27:29 EM73XX > EM84AB 10.3 miles 60° 2018-11-02 17:42:54
KQ4TV-7 60 2018-11-01 17:57:28 2018-11-16 18:43:24 EM66QF > EM66SF 7.3 miles 80° 2018-11-05 17:57:38
K4HCK 7 2018-11-02 08:24:51 2018-11-03 18:22:29 EM65TR > EM65TT 4.7 miles 337° 2018-11-03 18:04:17
W4JDH-1 1 2018-11-02 16:58:15 2018-11-02 16:58:15 EM73XW > EM73WV 5.6 miles 235° 2018-11-02 16:58:15
KM4SQK 1 2018-11-03 14:33:27 2018-11-03 14:33:27 EM73SW > EM73RW 0.8 miles 270° 2018-11-03 14:33:27
KI4NDN-1 1 2018-11-02 08:26:54 2018-11-02 08:26:54 EM65TS > EM65VT 8.9 miles 58° 2018-11-02 08:26:54
KM4SYN 1 2018-11-02 08:22:48 2018-11-02 08:22:48 EM65TT > EM65SS 4.8 miles 228° 2018-11-02 08:22:48
KD4UYP-10 3 2018-11-02 18:11:52 2018-11-02 19:25:25 EM74XA > EM74XC 6.5 miles 356° 2018-11-02 18:22:01
N3DAB-1 8 2018-11-02 10:51:01 2018-11-03 14:01:03 EM74LR > EM74TL 40.9 miles 113° 2018-11-02 10:51:01
N4NE-2 40 2018-11-02 11:33:37 2018-11-03 14:37:30 EM74QB > EM74WF 30.4 miles 69° 2018-11-02 11:33:37
K4EGC-1 4 2018-11-02 08:47:08 2018-11-03 17:48:06 EM65WM > EM65WJ 7.1 miles 176° 2018-11-03 17:48:06
AB4MM-2 3 2018-11-02 10:40:51 2018-11-02 10:44:53 EM74LV > EM74LU 3.2 miles 162° 2018-11-02 10:40:51
NA4ME-4 4 2018-11-02 10:46:56 2018-11-03 15:44:22 EM74LR > EM74KT 7.6 miles 311° 2018-11-03 15:36:16
N4BFR-10 11 2018-11-02 12:08:04 2018-11-03 14:15:13 EM73VV > EM73UV 5.3 miles 263° 2018-11-03 14:07:08
KM4RKT-10 2 2018-11-02 12:30:25 2018-11-03 14:11:11 EM73UV > EM73VU 4.2 miles 141° 2018-11-03 14:11:11
N4LMC-3 2 2018-11-02 10:24:37 2018-11-03 15:58:35 EM74JX > EM74HX 8.6 miles 264° 2018-11-03 15:58:35

Only position packets which were originated by the station are shown here. The range statistics show some extra long hops, because some digipeaters do not correctly add themselves to the digipeater path. Please check the raw packets.
About this site
This page shows real-time information collected from the Automatic Position Reporting System Internet network (APRS-IS). APRS is used by amateur (ham) radio operators to transmit real-time position information, weather data, telemetry and messages over the radio. A vehicle equipped with a GPS receiver, a VHF transmitter or HF transceiver and a small computer device called a tracker transmits it's location, speed and course in a small data packet, which is then received by a nearby iGate receiving site which forwards the packet on the Internet. Systems connected to the Internet can send information on the APRS-IS without a radio transmitter, or collect and display information transmitted anywhere in the world.
FAQ · Blog · Discussion group · Linking to aprs.fi · AIS sites · Service status · Database statistics · Advertising on aprs.fi · Technical details · API · Change log · Planned changes · Credits and thanks · Terms Of Service · iPhone/iPad APRS